sensor_id;sensor_type;location;lat;lon;timestamp;pressure;altitude;pressure_sealevel;temperature;humidity
79584;BME280;69053;57.338;18.700;2023-10-19T00:00:15;101627.28;;;1.69;85.26
79584;BME280;69053;57.338;18.700;2023-10-19T00:03:22;101623.88;;;1.67;84.97
79584;BME280;69053;57.338;18.700;2023-10-19T00:06:27;101624.00;;;1.65;84.48
79584;BME280;69053;57.338;18.700;2023-10-19T00:09:27;101621.97;;;1.58;84.49
79584;BME280;69053;57.338;18.700;2023-10-19T00:12:37;101628.03;;;1.50;84.25
79584;BME280;69053;57.338;18.700;2023-10-19T00:15:39;101619.22;;;1.38;84.75
79584;BME280;69053;57.338;18.700;2023-10-19T00:18:51;101624.53;;;1.28;85.04
79584;BME280;69053;57.338;18.700;2023-10-19T00:21:53;101626.19;;;1.20;84.86
79584;BME280;69053;57.338;18.700;2023-10-19T00:24:55;101619.91;;;1.09;85.49
79584;BME280;69053;57.338;18.700;2023-10-19T00:27:56;101615.72;;;0.96;85.26
79584;BME280;69053;57.338;18.700;2023-10-19T00:30:56;101630.31;;;0.82;86.01
79584;BME280;69053;57.338;18.700;2023-10-19T00:34:03;101619.78;;;0.69;86.21
79584;BME280;69053;57.338;18.700;2023-10-19T00:37:04;101615.84;;;0.52;86.84
79584;BME280;69053;57.338;18.700;2023-10-19T00:40:11;101622.22;;;0.40;87.63
79584;BME280;69053;57.338;18.700;2023-10-19T00:43:27;101611.41;;;0.30;87.93
79584;BME280;69053;57.338;18.700;2023-10-19T00:46:29;101611.31;;;0.20;87.29
79584;BME280;69053;57.338;18.700;2023-10-19T00:49:33;101616.56;;;0.10;87.96
79584;BME280;69053;57.338;18.700;2023-10-19T00:52:33;101616.34;;;0.02;88.32
79584;BME280;69053;57.338;18.700;2023-10-19T00:55:44;101611.00;;;-0.09;88.81
79584;BME280;69053;57.338;18.700;2023-10-19T00:58:45;101610.88;;;-0.19;88.36
79584;BME280;69053;57.338;18.700;2023-10-19T01:01:54;101613.25;;;-0.26;88.88
79584;BME280;69053;57.338;18.700;2023-10-19T01:04:56;101608.13;;;-0.29;88.78
79584;BME280;69053;57.338;18.700;2023-10-19T01:08:02;101601.41;;;-0.34;88.75
79584;BME280;69053;57.338;18.700;2023-10-19T01:11:05;101600.31;;;-0.43;88.93
79584;BME280;69053;57.338;18.700;2023-10-19T01:14:21;101599.00;;;-0.49;89.40
79584;BME280;69053;57.338;18.700;2023-10-19T01:17:22;101589.88;;;-0.58;88.98
79584;BME280;69053;57.338;18.700;2023-10-19T01:20:26;101587.81;;;-0.65;89.63
79584;BME280;69053;57.338;18.700;2023-10-19T01:23:30;101593.53;;;-0.70;89.76
79584;BME280;69053;57.338;18.700;2023-10-19T01:26:30;101588.06;;;-0.68;90.32
79584;BME280;69053;57.338;18.700;2023-10-19T01:29:31;101594.03;;;-0.65;90.22
79584;BME280;69053;57.338;18.700;2023-10-19T01:32:31;101589.03;;;-0.58;90.60
79584;BME280;69053;57.338;18.700;2023-10-19T01:35:32;101582.34;;;-0.52;90.38
79584;BME280;69053;57.338;18.700;2023-10-19T01:38:56;101589.78;;;-0.45;90.72
79584;BME280;69053;57.338;18.700;2023-10-19T01:42:01;101589.03;;;-0.35;90.83
79584;BME280;69053;57.338;18.700;2023-10-19T01:45:02;101588.50;;;-0.29;91.04
79584;BME280;69053;57.338;18.700;2023-10-19T01:48:03;101590.22;;;-0.28;91.56
79584;BME280;69053;57.338;18.700;2023-10-19T01:51:04;101583.78;;;-0.26;91.16
79584;BME280;69053;57.338;18.700;2023-10-19T01:54:06;101580.97;;;-0.24;91.63
79584;BME280;69053;57.338;18.700;2023-10-19T01:57:07;101580.00;;;-0.23;91.84
79584;BME280;69053;57.338;18.700;2023-10-19T02:00:09;101580.00;;;-0.23;91.31
79584;BME280;69053;57.338;18.700;2023-10-19T02:03:11;101582.78;;;-0.25;91.50
79584;BME280;69053;57.338;18.700;2023-10-19T02:06:13;101589.75;;;-0.22;91.96
79584;BME280;69053;57.338;18.700;2023-10-19T02:09:17;101581.06;;;-0.14;93.06
79584;BME280;69053;57.338;18.700;2023-10-19T02:12:21;101578.63;;;-0.06;93.20
79584;BME280;69053;57.338;18.700;2023-10-19T02:15:23;101570.81;;;0.02;93.18
79584;BME280;69053;57.338;18.700;2023-10-19T02:18:24;101567.25;;;0.13;93.51
79584;BME280;69053;57.338;18.700;2023-10-19T02:21:24;101559.56;;;0.20;93.50
79584;BME280;69053;57.338;18.700;2023-10-19T02:24:30;101549.19;;;0.26;93.89
79584;BME280;69053;57.338;18.700;2023-10-19T02:27:31;101547.44;;;0.36;93.48
79584;BME280;69053;57.338;18.700;2023-10-19T02:30:31;101545.78;;;0.45;92.88
79584;BME280;69053;57.338;18.700;2023-10-19T02:33:34;101534.16;;;0.56;93.31
79584;BME280;69053;57.338;18.700;2023-10-19T02:36:35;101528.16;;;0.64;92.27
79584;BME280;69053;57.338;18.700;2023-10-19T02:39:37;101527.16;;;0.65;92.33
79584;BME280;69053;57.338;18.700;2023-10-19T02:42:37;101533.69;;;0.72;92.44
79584;BME280;69053;57.338;18.700;2023-10-19T02:45:38;101529.66;;;0.78;91.88
79584;BME280;69053;57.338;18.700;2023-10-19T02:48:39;101522.91;;;0.83;91.83
79584;BME280;69053;57.338;18.700;2023-10-19T02:51:44;101527.72;;;0.89;92.12
79584;BME280;69053;57.338;18.700;2023-10-19T02:54:45;101539.22;;;1.01;92.11
79584;BME280;69053;57.338;18.700;2023-10-19T02:57:46;101527.13;;;1.07;91.64
79584;BME280;69053;57.338;18.700;2023-10-19T03:00:46;101530.38;;;1.10;92.69
79584;BME280;69053;57.338;18.700;2023-10-19T03:03:49;101526.44;;;1.15;92.38
79584;BME280;69053;57.338;18.700;2023-10-19T03:06:50;101531.22;;;1.11;92.01
79584;BME280;69053;57.338;18.700;2023-10-19T03:09:52;101536.28;;;1.04;91.95
79584;BME280;69053;57.338;18.700;2023-10-19T03:12:56;101539.34;;;1.00;92.43
79584;BME280;69053;57.338;18.700;2023-10-19T03:15:57;101532.31;;;0.99;92.52
79584;BME280;69053;57.338;18.700;2023-10-19T03:18:58;101527.78;;;0.99;92.87
79584;BME280;69053;57.338;18.700;2023-10-19T03:21:59;101537.78;;;0.97;93.10
79584;BME280;69053;57.338;18.700;2023-10-19T03:25:00;101528.78;;;0.98;93.25
79584;BME280;69053;57.338;18.700;2023-10-19T03:28:20;101522.97;;;0.93;92.72
79584;BME280;69053;57.338;18.700;2023-10-19T03:31:25;101528.00;;;0.86;93.03
79584;BME280;69053;57.338;18.700;2023-10-19T03:34:26;101523.53;;;0.75;92.55
79584;BME280;69053;57.338;18.700;2023-10-19T03:37:27;101529.72;;;0.66;92.81
79584;BME280;69053;57.338;18.700;2023-10-19T03:40:31;101521.72;;;0.55;93.03
79584;BME280;69053;57.338;18.700;2023-10-19T03:43:33;101517.28;;;0.44;93.11
79584;BME280;69053;57.338;18.700;2023-10-19T03:46:35;101517.81;;;0.38;93.47
79584;BME280;69053;57.338;18.700;2023-10-19T03:49:38;101513.09;;;0.30;93.22
79584;BME280;69053;57.338;18.700;2023-10-19T03:52:39;101510.94;;;0.24;93.55
79584;BME280;69053;57.338;18.700;2023-10-19T03:55:39;101508.06;;;0.16;93.52
79584;BME280;69053;57.338;18.700;2023-10-19T03:58:43;101506.00;;;0.08;93.87
79584;BME280;69053;57.338;18.700;2023-10-19T04:01:47;101499.09;;;0.06;93.06
79584;BME280;69053;57.338;18.700;2023-10-19T04:04:48;101504.81;;;0.01;93.27
79584;BME280;69053;57.338;18.700;2023-10-19T04:07:49;101504.47;;;-0.06;93.33
79584;BME280;69053;57.338;18.700;2023-10-19T04:10:55;101493.81;;;-0.17;93.40
79584;BME280;69053;57.338;18.700;2023-10-19T04:14:21;101493.34;;;-0.22;93.50
79584;BME280;69053;57.338;18.700;2023-10-19T04:17:22;101495.19;;;-0.34;93.10
79584;BME280;69053;57.338;18.700;2023-10-19T04:20:24;101490.75;;;-0.45;93.41
79584;BME280;69053;57.338;18.700;2023-10-19T04:23:42;101487.81;;;-0.53;93.88
79584;BME280;69053;57.338;18.700;2023-10-19T04:26:43;101491.97;;;-0.60;93.82
79584;BME280;69053;57.338;18.700;2023-10-19T04:29:43;101483.47;;;-0.65;94.18
79584;BME280;69053;57.338;18.700;2023-10-19T04:32:46;101483.97;;;-0.71;94.08
79584;BME280;69053;57.338;18.700;2023-10-19T04:35:46;101476.28;;;-0.76;94.36
79584;BME280;69053;57.338;18.700;2023-10-19T04:38:51;101488.34;;;-0.70;94.08
79584;BME280;69053;57.338;18.700;2023-10-19T04:41:52;101477.13;;;-0.64;93.98
79584;BME280;69053;57.338;18.700;2023-10-19T04:44:54;101465.47;;;-0.63;93.96
79584;BME280;69053;57.338;18.700;2023-10-19T04:47:55;101473.50;;;-0.63;93.93
79584;BME280;69053;57.338;18.700;2023-10-19T04:50:56;101467.41;;;-0.65;93.94
79584;BME280;69053;57.338;18.700;2023-10-19T04:53:57;101463.50;;;-0.72;93.73
79584;BME280;69053;57.338;18.700;2023-10-19T04:56:57;101469.00;;;-0.74;94.27
79584;BME280;69053;57.338;18.700;2023-10-19T05:00:00;101469.97;;;-0.75;94.08
79584;BME280;69053;57.338;18.700;2023-10-19T05:03:01;101470.59;;;-0.71;94.45
79584;BME280;69053;57.338;18.700;2023-10-19T05:06:02;101467.66;;;-0.68;94.64
79584;BME280;69053;57.338;18.700;2023-10-19T05:09:02;101458.41;;;-0.64;94.84
79584;BME280;69053;57.338;18.700;2023-10-19T05:12:03;101456.56;;;-0.52;95.94
79584;BME280;69053;57.338;18.700;2023-10-19T05:15:04;101456.25;;;-0.38;95.53
79584;BME280;69053;57.338;18.700;2023-10-19T05:18:06;101454.53;;;-0.28;95.94
79584;BME280;69053;57.338;18.700;2023-10-19T05:21:06;101454.16;;;-0.23;96.20
79584;BME280;69053;57.338;18.700;2023-10-19T05:24:07;101459.63;;;-0.25;95.67
79584;BME280;69053;57.338;18.700;2023-10-19T05:27:08;101449.03;;;-0.26;95.49
79584;BME280;69053;57.338;18.700;2023-10-19T05:30:10;101449.28;;;-0.29;95.23
79584;BME280;69053;57.338;18.700;2023-10-19T05:33:10;101450.41;;;-0.32;95.38
79584;BME280;69053;57.338;18.700;2023-10-19T05:36:11;101447.25;;;-0.37;95.49
79584;BME280;69053;57.338;18.700;2023-10-19T05:39:12;101454.34;;;-0.36;95.05
79584;BME280;69053;57.338;18.700;2023-10-19T05:42:13;101445.84;;;-0.41;95.26
79584;BME280;69053;57.338;18.700;2023-10-19T05:45:14;101446.91;;;-0.44;95.67
79584;BME280;69053;57.338;18.700;2023-10-19T05:48:16;101443.53;;;-0.46;95.28
79584;BME280;69053;57.338;18.700;2023-10-19T05:51:17;101443.28;;;-0.43;95.14
79584;BME280;69053;57.338;18.700;2023-10-19T05:54:18;101445.94;;;-0.43;95.67
79584;BME280;69053;57.338;18.700;2023-10-19T05:57:18;101438.75;;;-0.42;95.29
79584;BME280;69053;57.338;18.700;2023-10-19T06:00:19;101439.94;;;-0.35;95.69
79584;BME280;69053;57.338;18.700;2023-10-19T06:03:21;101444.81;;;-0.29;95.91
79584;BME280;69053;57.338;18.700;2023-10-19T06:06:21;101465.31;;;-0.18;95.71
79584;BME280;69053;57.338;18.700;2023-10-19T06:09:22;101472.09;;;-0.03;95.79
79584;BME280;69053;57.338;18.700;2023-10-19T06:12:31;101466.88;;;0.17;95.88
79584;BME280;69053;57.338;18.700;2023-10-19T06:15:31;101469.13;;;0.33;96.38
79584;BME280;69053;57.338;18.700;2023-10-19T06:18:32;101470.50;;;0.48;95.99
79584;BME280;69053;57.338;18.700;2023-10-19T06:21:33;101471.84;;;0.64;96.66
79584;BME280;69053;57.338;18.700;2023-10-19T06:24:34;101466.13;;;0.78;96.86
79584;BME280;69053;57.338;18.700;2023-10-19T06:27:34;101471.81;;;0.94;97.31
79584;BME280;69053;57.338;18.700;2023-10-19T06:30:35;101471.34;;;1.10;97.79
79584;BME280;69053;57.338;18.700;2023-10-19T06:33:35;101461.94;;;1.26;98.15
79584;BME280;69053;57.338;18.700;2023-10-19T06:36:37;101453.34;;;1.42;97.96
79584;BME280;69053;57.338;18.700;2023-10-19T06:39:38;101458.19;;;1.58;98.12
79584;BME280;69053;57.338;18.700;2023-10-19T06:42:44;101453.13;;;1.74;98.20
79584;BME280;69053;57.338;18.700;2023-10-19T06:45:47;101445.63;;;1.87;98.00
79584;BME280;69053;57.338;18.700;2023-10-19T06:48:48;101440.09;;;1.99;97.99
79584;BME280;69053;57.338;18.700;2023-10-19T06:51:48;101445.63;;;2.07;97.91
79584;BME280;69053;57.338;18.700;2023-10-19T06:54:50;101447.31;;;2.18;97.92
79584;BME280;69053;57.338;18.700;2023-10-19T06:57:54;101452.69;;;2.28;97.88
79584;BME280;69053;57.338;18.700;2023-10-19T07:00:55;101456.47;;;2.35;97.61
79584;BME280;69053;57.338;18.700;2023-10-19T07:04:08;101454.22;;;2.40;97.37
79584;BME280;69053;57.338;18.700;2023-10-19T07:07:10;101449.94;;;2.47;97.03
79584;BME280;69053;57.338;18.700;2023-10-19T07:10:12;101451.06;;;2.54;96.44
79584;BME280;69053;57.338;18.700;2023-10-19T07:13:13;101443.25;;;2.61;96.46
79584;BME280;69053;57.338;18.700;2023-10-19T07:16:13;101439.16;;;2.67;95.83
79584;BME280;69053;57.338;18.700;2023-10-19T07:19:14;101439.56;;;2.72;95.70
79584;BME280;69053;57.338;18.700;2023-10-19T07:22:14;101446.75;;;2.81;95.38
79584;BME280;69053;57.338;18.700;2023-10-19T07:25:17;101442.16;;;2.91;94.94
79584;BME280;69053;57.338;18.700;2023-10-19T07:28:22;101436.03;;;2.99;94.68
79584;BME280;69053;57.338;18.700;2023-10-19T07:31:25;101427.22;;;3.07;93.92
79584;BME280;69053;57.338;18.700;2023-10-19T07:34:31;101426.47;;;3.14;94.03
79584;BME280;69053;57.338;18.700;2023-10-19T07:37:33;101425.72;;;3.22;93.91
79584;BME280;69053;57.338;18.700;2023-10-19T07:40:34;101425.50;;;3.33;93.31
79584;BME280;69053;57.338;18.700;2023-10-19T07:43:36;101419.22;;;3.43;93.49
79584;BME280;69053;57.338;18.700;2023-10-19T07:46:36;101417.84;;;3.56;92.99
79584;BME280;69053;57.338;18.700;2023-10-19T07:49:37;101414.31;;;3.56;92.26
79584;BME280;69053;57.338;18.700;2023-10-19T07:52:40;101410.16;;;3.62;92.38
79584;BME280;69053;57.338;18.700;2023-10-19T07:55:41;101410.00;;;3.63;91.82
79584;BME280;69053;57.338;18.700;2023-10-19T07:58:42;101420.63;;;3.65;90.95
79584;BME280;69053;57.338;18.700;2023-10-19T08:01:43;101414.53;;;3.63;90.96
79584;BME280;69053;57.338;18.700;2023-10-19T08:04:43;101415.41;;;3.63;90.85
79584;BME280;69053;57.338;18.700;2023-10-19T08:07:44;101415.16;;;3.56;90.83
79584;BME280;69053;57.338;18.700;2023-10-19T08:10:45;101409.31;;;3.61;88.97
79584;BME280;69053;57.338;18.700;2023-10-19T08:13:47;101416.53;;;3.61;89.23
79584;BME280;69053;57.338;18.700;2023-10-19T08:16:49;101413.69;;;3.62;88.13
79584;BME280;69053;57.338;18.700;2023-10-19T08:19:49;101416.47;;;3.70;87.06
79584;BME280;69053;57.338;18.700;2023-10-19T08:22:51;101410.13;;;3.80;84.51
79584;BME280;69053;57.338;18.700;2023-10-19T08:25:52;101403.53;;;3.92;85.22
79584;BME280;69053;57.338;18.700;2023-10-19T08:28:53;101407.34;;;4.07;84.17
79584;BME280;69053;57.338;18.700;2023-10-19T08:31:53;101406.72;;;4.13;84.07
79584;BME280;69053;57.338;18.700;2023-10-19T08:34:54;101404.00;;;4.31;83.69
79584;BME280;69053;57.338;18.700;2023-10-19T08:37:55;101396.56;;;4.60;79.59
79584;BME280;69053;57.338;18.700;2023-10-19T08:40:59;101397.06;;;4.89;77.26
79584;BME280;69053;57.338;18.700;2023-10-19T08:44:02;101399.00;;;5.14;73.65
79584;BME280;69053;57.338;18.700;2023-10-19T08:47:03;101394.84;;;5.36;73.43
79584;BME280;69053;57.338;18.700;2023-10-19T08:50:05;101399.44;;;5.52;70.20
79584;BME280;69053;57.338;18.700;2023-10-19T08:53:08;101400.66;;;5.66;68.00
79584;BME280;69053;57.338;18.700;2023-10-19T08:56:09;101402.19;;;5.76;67.33
79584;BME280;69053;57.338;18.700;2023-10-19T08:59:12;101400.84;;;5.89;67.07
79584;BME280;69053;57.338;18.700;2023-10-19T09:02:12;101404.88;;;5.93;66.85
79584;BME280;69053;57.338;18.700;2023-10-19T09:05:13;101403.06;;;6.01;63.05
79584;BME280;69053;57.338;18.700;2023-10-19T09:08:23;101402.72;;;6.21;63.52
79584;BME280;69053;57.338;18.700;2023-10-19T09:11:24;101401.34;;;6.42;60.89
79584;BME280;69053;57.338;18.700;2023-10-19T09:14:33;101397.25;;;6.62;59.85
79584;BME280;69053;57.338;18.700;2023-10-19T09:17:33;101401.59;;;6.80;61.41
79584;BME280;69053;57.338;18.700;2023-10-19T09:20:34;101399.34;;;6.91;64.82
79584;BME280;69053;57.338;18.700;2023-10-19T09:23:35;101404.03;;;6.98;66.64
79584;BME280;69053;57.338;18.700;2023-10-19T09:26:36;101409.47;;;6.98;67.05
79584;BME280;69053;57.338;18.700;2023-10-19T09:29:37;101413.38;;;6.95;67.48
79584;BME280;69053;57.338;18.700;2023-10-19T09:32:38;101407.81;;;6.88;68.45
79584;BME280;69053;57.338;18.700;2023-10-19T09:35:40;101410.88;;;6.85;69.14
79584;BME280;69053;57.338;18.700;2023-10-19T09:38:50;101402.63;;;6.70;68.95
79584;BME280;69053;57.338;18.700;2023-10-19T09:41:52;101406.03;;;6.56;70.09
79584;BME280;69053;57.338;18.700;2023-10-19T09:44:57;101406.38;;;6.53;69.83
79584;BME280;69053;57.338;18.700;2023-10-19T09:48:05;101403.00;;;6.51;69.75
79584;BME280;69053;57.338;18.700;2023-10-19T09:51:06;101401.00;;;6.45;68.65
79584;BME280;69053;57.338;18.700;2023-10-19T09:54:22;101400.47;;;6.41;68.66
79584;BME280;69053;57.338;18.700;2023-10-19T10:00:34;101399.50;;;6.26;68.12
79584;BME280;69053;57.338;18.700;2023-10-19T10:09:55;101407.28;;;5.96;66.23
79584;BME280;69053;57.338;18.700;2023-10-19T10:16:30;101405.25;;;6.06;66.76
79584;BME280;69053;57.338;18.700;2023-10-19T10:19:34;101397.66;;;6.26;66.88
79584;BME280;69053;57.338;18.700;2023-10-19T10:22:34;101402.28;;;6.65;67.00
79584;BME280;69053;57.338;18.700;2023-10-19T10:25:35;101395.41;;;7.02;64.88
79584;BME280;69053;57.338;18.700;2023-10-19T10:28:38;101396.72;;;7.06;63.80
79584;BME280;69053;57.338;18.700;2023-10-19T10:31:43;101396.97;;;6.97;63.20
79584;BME280;69053;57.338;18.700;2023-10-19T10:34:44;101397.31;;;6.93;62.98
79584;BME280;69053;57.338;18.700;2023-10-19T10:37:53;101399.34;;;6.91;64.09
79584;BME280;69053;57.338;18.700;2023-10-19T10:40:54;101390.97;;;7.09;62.83
79584;BME280;69053;57.338;18.700;2023-10-19T10:43:56;101379.72;;;7.52;61.45
79584;BME280;69053;57.338;18.700;2023-10-19T10:46:57;101389.13;;;7.87;60.86
79584;BME280;69053;57.338;18.700;2023-10-19T10:49:58;101387.94;;;7.67;58.10
79584;BME280;69053;57.338;18.700;2023-10-19T10:52:59;101380.75;;;7.20;57.36
79584;BME280;69053;57.338;18.700;2023-10-19T10:56:00;101384.31;;;6.81;57.90
79584;BME280;69053;57.338;18.700;2023-10-19T10:59:12;101374.59;;;6.55;58.72
79584;BME280;69053;57.338;18.700;2023-10-19T11:02:19;101374.22;;;6.58;59.94
79584;BME280;69053;57.338;18.700;2023-10-19T11:05:21;101373.88;;;6.61;60.73
79584;BME280;69053;57.338;18.700;2023-10-19T11:08:25;101365.63;;;6.54;59.92
79584;BME280;69053;57.338;18.700;2023-10-19T11:11:26;101370.38;;;6.36;59.08
79584;BME280;69053;57.338;18.700;2023-10-19T11:14:26;101359.72;;;6.51;59.35
79584;BME280;69053;57.338;18.700;2023-10-19T11:17:30;101361.25;;;6.93;59.13
79584;BME280;69053;57.338;18.700;2023-10-19T11:20:31;101358.63;;;7.39;57.61
79584;BME280;69053;57.338;18.700;2023-10-19T11:23:45;101354.28;;;7.76;55.72
79584;BME280;69053;57.338;18.700;2023-10-19T11:26:46;101346.63;;;8.03;56.20
79584;BME280;69053;57.338;18.700;2023-10-19T11:29:56;101353.84;;;8.25;55.10
79584;BME280;69053;57.338;18.700;2023-10-19T11:32:58;101341.06;;;8.49;54.95
79584;BME280;69053;57.338;18.700;2023-10-19T11:36:01;101343.41;;;8.67;53.73
79584;BME280;69053;57.338;18.700;2023-10-19T11:39:02;101344.91;;;8.70;51.26
79584;BME280;69053;57.338;18.700;2023-10-19T11:42:04;101354.19;;;8.60;51.94
79584;BME280;69053;57.338;18.700;2023-10-19T11:45:05;101353.13;;;8.76;52.01
79584;BME280;69053;57.338;18.700;2023-10-19T11:48:06;101347.06;;;8.89;49.23
79584;BME280;69053;57.338;18.700;2023-10-19T11:51:08;101340.19;;;8.93;50.02
79584;BME280;69053;57.338;18.700;2023-10-19T11:54:11;101336.94;;;8.83;50.65
79584;BME280;69053;57.338;18.700;2023-10-19T11:57:12;101335.44;;;8.66;48.93
79584;BME280;69053;57.338;18.700;2023-10-19T12:00:13;101338.34;;;8.64;49.48
79584;BME280;69053;57.338;18.700;2023-10-19T12:03:15;101339.56;;;8.47;47.66
79584;BME280;69053;57.338;18.700;2023-10-19T12:06:15;101342.72;;;8.20;46.98
79584;BME280;69053;57.338;18.700;2023-10-19T12:09:19;101335.31;;;8.14;47.04
79584;BME280;69053;57.338;18.700;2023-10-19T12:12:24;101336.00;;;7.93;47.51
79584;BME280;69053;57.338;18.700;2023-10-19T12:15:25;101328.13;;;7.83;47.66
79584;BME280;69053;57.338;18.700;2023-10-19T12:18:25;101318.34;;;7.97;49.53
79584;BME280;69053;57.338;18.700;2023-10-19T12:21:27;101315.56;;;8.20;49.81
79584;BME280;69053;57.338;18.700;2023-10-19T12:24:28;101322.13;;;8.41;49.89
79584;BME280;69053;57.338;18.700;2023-10-19T12:27:29;101313.53;;;8.37;48.68
79584;BME280;69053;57.338;18.700;2023-10-19T12:30:30;101306.78;;;8.18;49.00
79584;BME280;69053;57.338;18.700;2023-10-19T12:33:37;101314.19;;;7.86;49.23
79584;BME280;69053;57.338;18.700;2023-10-19T12:36:39;101302.34;;;7.64;48.67
79584;BME280;69053;57.338;18.700;2023-10-19T12:39:41;101304.19;;;7.26;46.54
79584;BME280;69053;57.338;18.700;2023-10-19T12:42:55;101305.91;;;6.87;48.54
79584;BME280;69053;57.338;18.700;2023-10-19T12:45:56;101307.22;;;6.60;49.22
79584;BME280;69053;57.338;18.700;2023-10-19T12:48:58;101299.88;;;6.37;49.76
79584;BME280;69053;57.338;18.700;2023-10-19T12:51:58;101297.72;;;6.25;50.77
79584;BME280;69053;57.338;18.700;2023-10-19T12:55:00;101287.41;;;6.20;51.25
79584;BME280;69053;57.338;18.700;2023-10-19T12:58:04;101288.97;;;6.06;50.80
79584;BME280;69053;57.338;18.700;2023-10-19T13:01:09;101286.06;;;5.91;50.62
79584;BME280;69053;57.338;18.700;2023-10-19T13:04:16;101288.66;;;5.76;51.04
79584;BME280;69053;57.338;18.700;2023-10-19T13:07:18;101281.22;;;5.70;52.04
79584;BME280;69053;57.338;18.700;2023-10-19T13:10:20;101277.00;;;5.68;52.06
79584;BME280;69053;57.338;18.700;2023-10-19T13:13:20;101272.94;;;5.72;52.32
79584;BME280;69053;57.338;18.700;2023-10-19T13:16:24;101275.13;;;5.76;53.02
79584;BME280;69053;57.338;18.700;2023-10-19T13:19:25;101265.50;;;5.82;53.71
79584;BME280;69053;57.338;18.700;2023-10-19T13:22:26;101268.34;;;5.89;55.49
79584;BME280;69053;57.338;18.700;2023-10-19T13:25:27;101264.81;;;5.80;56.03
79584;BME280;69053;57.338;18.700;2023-10-19T13:29:00;101270.22;;;5.63;57.05
79584;BME280;69053;57.338;18.700;2023-10-19T13:32:00;101274.47;;;5.50;57.74
79584;BME280;69053;57.338;18.700;2023-10-19T13:35:01;101274.28;;;5.43;58.58
79584;BME280;69053;57.338;18.700;2023-10-19T13:38:02;101280.38;;;5.37;58.86
79584;BME280;69053;57.338;18.700;2023-10-19T13:41:05;101273.28;;;5.36;59.44
79584;BME280;69053;57.338;18.700;2023-10-19T13:44:12;101271.59;;;5.26;59.32
79584;BME280;69053;57.338;18.700;2023-10-19T13:47:12;101272.09;;;5.22;59.62
79584;BME280;69053;57.338;18.700;2023-10-19T13:50:13;101267.19;;;5.25;59.57
79584;BME280;69053;57.338;18.700;2023-10-19T13:53:16;101263.31;;;5.28;60.00
79584;BME280;69053;57.338;18.700;2023-10-19T13:56:17;101264.00;;;5.38;60.40
79584;BME280;69053;57.338;18.700;2023-10-19T13:59:18;101254.38;;;5.44;59.75
79584;BME280;69053;57.338;18.700;2023-10-19T14:02:18;101243.91;;;5.49;59.43
79584;BME280;69053;57.338;18.700;2023-10-19T14:05:20;101255.38;;;5.51;58.53
79584;BME280;69053;57.338;18.700;2023-10-19T14:08:20;101255.72;;;5.56;58.88
79584;BME280;69053;57.338;18.700;2023-10-19T14:11:21;101261.44;;;5.61;60.25
79584;BME280;69053;57.338;18.700;2023-10-19T14:14:23;101270.94;;;5.57;61.49
79584;BME280;69053;57.338;18.700;2023-10-19T14:17:24;101275.50;;;5.49;62.86
79584;BME280;69053;57.338;18.700;2023-10-19T14:20:25;101272.94;;;5.31;64.57
79584;BME280;69053;57.338;18.700;2023-10-19T14:23:26;101280.00;;;5.07;66.30
79584;BME280;69053;57.338;18.700;2023-10-19T14:26:27;101265.81;;;4.88;67.16
79584;BME280;69053;57.338;18.700;2023-10-19T14:29:27;101262.22;;;4.72;67.54
79584;BME280;69053;57.338;18.700;2023-10-19T14:32:28;101261.16;;;4.56;67.64
79584;BME280;69053;57.338;18.700;2023-10-19T14:35:28;101244.56;;;4.43;68.80
79584;BME280;69053;57.338;18.700;2023-10-19T14:38:29;101257.66;;;4.29;69.05
79584;BME280;69053;57.338;18.700;2023-10-19T14:41:29;101261.00;;;4.23;69.57
79584;BME280;69053;57.338;18.700;2023-10-19T14:44:30;101257.13;;;4.26;69.93
79584;BME280;69053;57.338;18.700;2023-10-19T14:47:31;101257.44;;;4.23;70.19
79584;BME280;69053;57.338;18.700;2023-10-19T14:50:31;101258.28;;;4.15;70.29
79584;BME280;69053;57.338;18.700;2023-10-19T14:53:32;101259.41;;;4.12;70.22
79584;BME280;69053;57.338;18.700;2023-10-19T14:56:33;101247.28;;;4.08;69.84
79584;BME280;69053;57.338;18.700;2023-10-19T14:59:33;101248.28;;;4.07;69.45
79584;BME280;69053;57.338;18.700;2023-10-19T15:02:36;101250.97;;;4.07;69.95
79584;BME280;69053;57.338;18.700;2023-10-19T15:05:37;101254.84;;;4.05;69.64
79584;BME280;69053;57.338;18.700;2023-10-19T15:08:37;101258.69;;;4.02;70.19
79584;BME280;69053;57.338;18.700;2023-10-19T15:11:38;101250.06;;;3.90;70.24
79584;BME280;69053;57.338;18.700;2023-10-19T15:14:40;101240.44;;;3.88;69.87
79584;BME280;69053;57.338;18.700;2023-10-19T15:17:46;101248.66;;;3.86;69.70
79584;BME280;69053;57.338;18.700;2023-10-19T15:20:47;101244.97;;;3.87;69.69
79584;BME280;69053;57.338;18.700;2023-10-19T15:23:47;101237.41;;;3.91;68.79
79584;BME280;69053;57.338;18.700;2023-10-19T15:26:50;101246.34;;;3.91;68.71
79584;BME280;69053;57.338;18.700;2023-10-19T15:29:50;101235.56;;;3.91;68.58
79584;BME280;69053;57.338;18.700;2023-10-19T15:32:52;101238.41;;;3.90;68.39
79584;BME280;69053;57.338;18.700;2023-10-19T15:35:56;101242.13;;;3.89;68.90
79584;BME280;69053;57.338;18.700;2023-10-19T15:38:57;101234.19;;;3.87;69.07
79584;BME280;69053;57.338;18.700;2023-10-19T15:41:58;101240.72;;;3.85;68.85
79584;BME280;69053;57.338;18.700;2023-10-19T15:44:58;101245.28;;;3.84;69.40
79584;BME280;69053;57.338;18.700;2023-10-19T15:47:59;101239.38;;;3.81;69.85
79584;BME280;69053;57.338;18.700;2023-10-19T15:51:01;101242.84;;;3.73;70.39
79584;BME280;69053;57.338;18.700;2023-10-19T15:54:02;101233.72;;;3.66;71.23
79584;BME280;69053;57.338;18.700;2023-10-19T15:57:05;101237.88;;;3.60;71.34
79584;BME280;69053;57.338;18.700;2023-10-19T16:00:07;101240.91;;;3.57;71.53
79584;BME280;69053;57.338;18.700;2023-10-19T16:03:10;101235.97;;;3.52;72.09